Terminal Aerodrome Forecast
Issued by NWS

Home | Current Version | Previous Version | Text Only | Print | Product List | Glossary On
Versions: 1 2 3 4 5 6 7 8 9 10 11 12 13 14 15 16 17 18 19
000
FTUS46 KLOX 270643 AAA
TAFPMD
TAF AMD
KPMD 270643Z 2707/2806 21013KT P6SM SCT250
     FM271000 21008KT P6SM BKN250
     FM271700 24010KT P6SM SCT250
     FM272200 23017G25KT P6SM SCT250
     FM280200 24012KT P6SM SCT250=

USA.gov is the U.S. government's official web portal to all federal, state and local government web resources and services.